createdAt,value
2017-08-28T00:01:48.273Z,14.60
2017-08-28T00:04:15.794Z,14.60
2017-08-28T00:06:43.281Z,14.60
2017-08-28T00:09:10.812Z,14.70
2017-08-28T00:11:38.311Z,14.70
2017-08-28T00:14:05.847Z,14.50
2017-08-28T00:16:33.371Z,14.30
2017-08-28T00:19:00.883Z,14.20
2017-08-28T00:21:28.396Z,14.10
2017-08-28T00:23:55.886Z,14.00
2017-08-28T00:26:23.391Z,14.00
2017-08-28T00:28:51.021Z,14.10
2017-08-28T00:31:18.531Z,14.20
2017-08-28T00:33:46.018Z,14.20
2017-08-28T00:36:13.522Z,14.00
2017-08-28T00:38:41.051Z,14.00
2017-08-28T00:41:08.573Z,14.10
2017-08-28T00:43:36.221Z,14.10
2017-08-28T00:46:03.757Z,14.00
2017-08-28T00:48:31.243Z,13.90
2017-08-28T00:50:58.743Z,13.90
2017-08-28T00:53:26.276Z,13.80
2017-08-28T00:55:53.760Z,13.70
2017-08-28T00:58:21.270Z,13.80
2017-08-28T01:00:48.764Z,13.90
2017-08-28T01:03:16.299Z,14.00
2017-08-28T01:05:43.816Z,14.00
2017-08-28T01:08:11.352Z,14.00
2017-08-28T01:10:38.846Z,13.90
2017-08-28T01:13:06.363Z,13.80
2017-08-28T01:15:33.880Z,13.90
2017-08-28T01:18:01.382Z,13.70
2017-08-28T01:20:28.875Z,13.70
2017-08-28T01:22:56.551Z,13.70
2017-08-28T01:25:24.055Z,13.70
2017-08-28T01:27:51.584Z,13.70
2017-08-28T01:30:19.089Z,13.60
2017-08-28T01:32:46.602Z,13.50
2017-08-28T01:35:14.194Z,13.40
2017-08-28T01:37:41.690Z,13.30
2017-08-28T01:40:09.192Z,13.20
2017-08-28T01:42:36.690Z,13.20
2017-08-28T01:45:04.240Z,13.30
2017-08-28T01:47:31.756Z,13.20
2017-08-28T01:49:59.838Z,13.30
2017-08-28T01:52:27.384Z,13.40
2017-08-28T01:54:54.938Z,13.40
2017-08-28T01:57:22.463Z,13.50
2017-08-28T01:59:50.026Z,13.50
2017-08-28T02:02:17.547Z,13.50
2017-08-28T02:04:45.068Z,13.50
2017-08-28T02:07:12.627Z,13.50
2017-08-28T02:09:40.178Z,13.30
2017-08-28T02:12:07.704Z,13.10
2017-08-28T02:14:35.204Z,13.10
2017-08-28T02:17:02.717Z,13.00
2017-08-28T02:19:30.229Z,13.00
2017-08-28T02:21:57.764Z,13.20
2017-08-28T02:24:25.270Z,13.20
2017-08-28T02:26:52.787Z,13.30
2017-08-28T02:29:20.282Z,13.30
2017-08-28T02:31:47.808Z,13.30
2017-08-28T02:34:15.296Z,13.30
2017-08-28T02:36:42.819Z,13.10
2017-08-28T02:39:10.347Z,13.00
2017-08-28T02:41:37.884Z,13.00
2017-08-28T02:44:05.384Z,13.10
2017-08-28T02:46:32.901Z,13.10
2017-08-28T02:49:00.392Z,13.00
2017-08-28T02:51:27.899Z,12.90
2017-08-28T02:53:55.415Z,13.00
2017-08-28T02:56:22.912Z,13.00
2017-08-28T02:58:50.416Z,12.80
2017-08-28T03:01:17.942Z,12.70
2017-08-28T03:03:45.492Z,12.60
2017-08-28T03:06:13.039Z,12.70
2017-08-28T03:08:40.553Z,12.60
2017-08-28T03:11:08.068Z,12.50
2017-08-28T03:13:35.623Z,12.50
2017-08-28T03:16:03.153Z,12.50
2017-08-28T03:18:30.683Z,12.50
2017-08-28T03:20:58.324Z,12.40
2017-08-28T03:23:25.848Z,12.50
2017-08-28T03:25:53.406Z,12.60
2017-08-28T03:28:20.910Z,12.50
2017-08-28T03:30:48.437Z,12.40
2017-08-28T03:33:16.035Z,12.30
2017-08-28T03:35:43.572Z,12.30
2017-08-28T03:38:11.083Z,12.40
2017-08-28T03:40:38.608Z,12.60
2017-08-28T03:43:06.108Z,12.60
2017-08-28T03:45:33.637Z,12.70
2017-08-28T03:48:01.127Z,12.70
2017-08-28T03:50:28.683Z,12.80
2017-08-28T03:52:56.192Z,12.80
2017-08-28T03:55:23.744Z,12.90
2017-08-28T03:57:51.330Z,13.00
2017-08-28T04:00:18.876Z,13.00
2017-08-28T04:02:46.396Z,13.00
2017-08-28T04:05:13.927Z,13.00
2017-08-28T04:07:41.507Z,13.00
2017-08-28T04:10:09.040Z,12.80
2017-08-28T04:12:36.579Z,12.70
2017-08-28T04:15:04.135Z,12.80
2017-08-28T04:17:31.657Z,12.70
2017-08-28T04:19:59.191Z,12.80
2017-08-28T04:22:26.695Z,12.80
2017-08-28T04:24:54.204Z,12.90
2017-08-28T04:27:21.754Z,12.90
2017-08-28T04:29:49.266Z,12.90
2017-08-28T04:32:16.808Z,12.90
2017-08-28T04:34:44.337Z,12.90
2017-08-28T04:37:11.851Z,12.90
2017-08-28T04:39:39.415Z,12.80
2017-08-28T04:42:06.952Z,12.60
2017-08-28T04:44:34.485Z,12.50
2017-08-28T04:47:01.999Z,12.50
2017-08-28T04:49:29.515Z,12.50
2017-08-28T04:51:57.013Z,12.40
2017-08-28T04:54:24.554Z,12.40
2017-08-28T04:56:52.080Z,12.50
2017-08-28T04:59:19.601Z,12.60
2017-08-28T05:01:47.120Z,12.50
2017-08-28T05:04:14.740Z,12.60
2017-08-28T05:06:42.278Z,12.80
2017-08-28T05:09:09.811Z,12.90
2017-08-28T05:11:37.341Z,13.00
2017-08-28T05:14:04.868Z,13.20
2017-08-28T05:16:32.380Z,13.20
2017-08-28T05:18:59.993Z,13.50
2017-08-28T05:21:27.513Z,13.80
2017-08-28T05:23:55.021Z,14.00
2017-08-28T05:26:22.564Z,14.20
2017-08-28T05:28:50.123Z,14.30
2017-08-28T05:31:17.647Z,14.40
2017-08-28T05:33:45.153Z,14.50
2017-08-28T05:36:12.724Z,14.50
2017-08-28T05:38:40.243Z,14.60
2017-08-28T05:41:07.766Z,14.60
2017-08-28T05:43:35.313Z,14.80
2017-08-28T05:46:02.853Z,14.90
2017-08-28T05:48:30.376Z,15.00
2017-08-28T05:50:58.044Z,15.00
2017-08-28T05:53:25.581Z,15.00
2017-08-28T05:55:53.128Z,15.00
2017-08-28T05:58:20.676Z,15.10
2017-08-28T06:00:48.244Z,15.20
2017-08-28T06:03:15.835Z,15.40
2017-08-28T06:05:43.434Z,15.50
2017-08-28T06:08:11.329Z,15.60
2017-08-28T06:10:38.932Z,15.60
2017-08-28T06:13:07.733Z,15.70
2017-08-28T06:15:41.310Z,15.80
2017-08-28T06:18:08.903Z,15.80
2017-08-28T06:20:36.456Z,15.70
2017-08-28T06:23:03.990Z,15.70
2017-08-28T06:25:31.516Z,15.70
2017-08-28T06:27:59.044Z,15.70
2017-08-28T06:30:26.543Z,15.70
2017-08-28T06:32:54.049Z,15.60
2017-08-28T06:35:21.576Z,15.70
2017-08-28T06:37:49.113Z,15.70
2017-08-28T06:40:16.672Z,15.70
2017-08-28T06:42:44.171Z,15.80
2017-08-28T06:45:11.685Z,15.90
2017-08-28T06:47:39.187Z,15.90
2017-08-28T06:50:06.746Z,16.00
2017-08-28T06:52:34.276Z,16.10
2017-08-28T06:55:01.827Z,16.30
2017-08-28T06:57:29.331Z,16.30
2017-08-28T06:59:56.852Z,16.40
2017-08-28T07:02:25.284Z,16.50
2017-08-28T07:04:52.802Z,16.50
2017-08-28T07:07:20.302Z,16.50
2017-08-28T07:09:47.899Z,16.60
2017-08-28T07:12:15.440Z,16.60
2017-08-28T07:14:42.987Z,16.70
2017-08-28T07:17:10.486Z,16.70
2017-08-28T07:19:38.011Z,16.80
2017-08-28T07:22:05.543Z,16.80
2017-08-28T07:24:33.043Z,16.80
2017-08-28T07:27:00.578Z,16.90
2017-08-28T07:29:28.095Z,16.90
2017-08-28T07:31:55.633Z,17.00
2017-08-28T07:34:23.159Z,17.10
2017-08-28T07:36:50.685Z,17.10
2017-08-28T07:39:18.197Z,17.20
2017-08-28T07:41:45.743Z,17.20
2017-08-28T07:44:13.253Z,17.30
2017-08-28T07:46:40.787Z,17.40
2017-08-28T07:49:08.336Z,17.40
2017-08-28T07:51:35.853Z,17.50
2017-08-28T07:54:03.368Z,17.60
2017-08-28T07:56:30.912Z,17.70
2017-08-28T07:58:58.449Z,17.70
2017-08-28T08:01:25.960Z,17.70
2017-08-28T08:03:53.486Z,17.70
2017-08-28T08:06:20.967Z,17.70
2017-08-28T08:08:48.533Z,17.80
2017-08-28T08:11:16.042Z,17.90
2017-08-28T08:13:43.582Z,17.90
2017-08-28T08:16:11.100Z,18.00
2017-08-28T08:18:38.638Z,18.00
2017-08-28T08:21:06.167Z,18.00
2017-08-28T08:23:33.765Z,18.10
2017-08-28T08:26:02.564Z,18.20
2017-08-28T08:28:30.113Z,18.20
2017-08-28T08:30:57.632Z,18.30
2017-08-28T08:33:30.879Z,18.30
2017-08-28T08:35:58.408Z,18.40
2017-08-28T08:38:25.927Z,18.40
2017-08-28T08:40:53.456Z,18.50
2017-08-28T08:43:21.003Z,18.50
2017-08-28T08:45:48.550Z,18.60
2017-08-28T08:48:16.076Z,18.70
2017-08-28T08:50:43.632Z,18.70
2017-08-28T08:53:11.163Z,18.70
2017-08-28T08:55:38.683Z,18.80
2017-08-28T08:58:06.215Z,18.80
2017-08-28T09:00:33.725Z,18.90
2017-08-28T09:03:01.244Z,18.90
2017-08-28T09:05:28.751Z,19.00
2017-08-28T09:07:56.247Z,19.00
2017-08-28T09:10:23.815Z,19.10
2017-08-28T09:12:51.337Z,19.10
2017-08-28T09:15:18.874Z,19.10
2017-08-28T09:17:46.380Z,19.20
2017-08-28T09:20:13.897Z,19.30
2017-08-28T09:22:41.439Z,19.30
2017-08-28T09:25:08.951Z,19.30
2017-08-28T09:27:36.568Z,19.40
2017-08-28T09:30:04.074Z,19.50
2017-08-28T09:32:31.588Z,19.50
2017-08-28T09:34:59.084Z,19.50
2017-08-28T09:37:26.610Z,19.60
2017-08-28T09:39:54.146Z,19.60
2017-08-28T09:42:21.678Z,19.70
2017-08-28T09:44:49.207Z,19.70
2017-08-28T09:47:16.753Z,19.80
2017-08-28T09:49:44.279Z,19.90
2017-08-28T09:52:11.832Z,20.00
2017-08-28T09:54:39.506Z,19.90
2017-08-28T09:57:07.067Z,20.00
2017-08-28T09:59:34.586Z,20.10
2017-08-28T10:02:02.101Z,20.30
2017-08-28T10:04:29.626Z,20.30
2017-08-28T10:06:57.205Z,20.20
2017-08-28T10:09:24.715Z,20.30
2017-08-28T10:11:52.250Z,20.40
2017-08-28T10:14:19.760Z,20.50
2017-08-28T10:16:47.256Z,20.60
2017-08-28T10:19:14.792Z,20.60
2017-08-28T10:21:42.301Z,20.60
2017-08-28T10:24:09.808Z,20.70
2017-08-28T10:26:36.818Z,20.70
2017-08-28T10:29:04.346Z,20.80
2017-08-28T10:31:31.866Z,20.80
2017-08-28T10:33:59.411Z,21.00
2017-08-28T10:36:26.923Z,21.00
2017-08-28T10:38:54.453Z,21.20
2017-08-28T10:41:21.962Z,21.20
2017-08-28T10:43:49.482Z,21.30
2017-08-28T10:46:17.031Z,21.40
2017-08-28T10:48:44.540Z,21.50
2017-08-28T10:51:12.055Z,21.50
2017-08-28T10:53:39.551Z,21.70
2017-08-28T10:56:07.062Z,21.80
2017-08-28T10:58:34.572Z,21.90
2017-08-28T11:01:02.087Z,22.10
2017-08-28T11:03:29.586Z,22.20
2017-08-28T11:05:57.126Z,22.30
2017-08-28T11:08:24.614Z,22.40
2017-08-28T11:10:52.124Z,22.50
2017-08-28T11:13:19.631Z,22.60
2017-08-28T11:15:47.155Z,22.60
2017-08-28T11:18:14.740Z,22.60
2017-08-28T11:20:42.256Z,22.50
2017-08-28T11:23:09.814Z,22.50
2017-08-28T11:25:37.326Z,22.30
2017-08-28T11:28:04.852Z,22.20
2017-08-28T11:30:32.392Z,22.30
2017-08-28T11:33:00.044Z,22.40
2017-08-28T11:35:27.603Z,22.50
2017-08-28T11:37:55.215Z,22.60
2017-08-28T11:40:22.720Z,22.60
2017-08-28T11:42:50.295Z,22.70
2017-08-28T11:45:17.824Z,22.90
2017-08-28T11:47:45.336Z,23.00
2017-08-28T11:50:12.895Z,23.10
2017-08-28T11:52:40.424Z,23.20
2017-08-28T11:55:07.954Z,23.30
2017-08-28T11:57:35.468Z,23.30
2017-08-28T12:00:03.204Z,23.40
2017-08-28T12:02:30.809Z,23.40
2017-08-28T12:04:58.376Z,23.30
2017-08-28T12:07:25.995Z,23.40
2017-08-28T12:09:53.543Z,23.30
2017-08-28T12:12:21.108Z,23.20
2017-08-28T12:14:48.873Z,23.10
2017-08-28T12:17:17.090Z,23.10
2017-08-28T12:19:44.658Z,23.10
2017-08-28T12:22:12.243Z,23.10
2017-08-28T12:24:39.825Z,23.20
2017-08-28T12:27:07.398Z,23.30
2017-08-28T12:29:34.927Z,23.30
2017-08-28T12:32:02.451Z,23.40
2017-08-28T12:34:30.007Z,23.50
2017-08-28T12:36:57.538Z,23.50
2017-08-28T12:39:25.031Z,23.50
2017-08-28T12:41:52.583Z,23.60
2017-08-28T12:44:20.084Z,23.70
2017-08-28T12:46:47.593Z,23.70
2017-08-28T12:49:15.113Z,23.70
2017-08-28T12:51:42.656Z,23.70
2017-08-28T12:54:10.160Z,23.80
2017-08-28T12:56:37.869Z,23.80
2017-08-28T12:59:05.395Z,23.70
2017-08-28T13:01:32.941Z,23.50
2017-08-28T13:04:00.547Z,23.40
2017-08-28T13:06:28.071Z,23.30
2017-08-28T13:08:55.624Z,23.10
2017-08-28T13:11:23.124Z,23.00
2017-08-28T13:13:50.716Z,22.90
2017-08-28T13:16:18.227Z,22.80
2017-08-28T13:18:45.821Z,22.80
2017-08-28T13:21:13.380Z,22.70
2017-08-28T13:23:40.948Z,22.70
2017-08-28T13:26:08.518Z,22.60
2017-08-28T13:28:36.025Z,22.50
2017-08-28T13:31:03.636Z,22.50
2017-08-28T13:33:31.174Z,22.50
2017-08-28T13:35:58.697Z,22.50
2017-08-28T13:38:26.206Z,22.50
2017-08-28T13:40:53.783Z,22.50
2017-08-28T13:43:21.340Z,22.50
2017-08-28T13:45:48.939Z,22.50
2017-08-28T13:48:16.462Z,22.60
2017-08-28T13:50:44.008Z,22.60
2017-08-28T13:53:11.590Z,22.60
2017-08-28T13:55:39.201Z,22.70
2017-08-28T13:58:06.759Z,22.70
2017-08-28T14:00:34.262Z,22.70
2017-08-28T14:03:01.790Z,22.80
2017-08-28T14:05:29.318Z,22.80
2017-08-28T14:08:02.663Z,22.90
2017-08-28T14:10:30.185Z,22.90
2017-08-28T14:12:57.689Z,23.00
2017-08-28T14:15:25.175Z,23.00
2017-08-28T14:17:52.667Z,23.10
2017-08-28T14:20:20.195Z,23.20
2017-08-28T14:22:48.736Z,23.20
2017-08-28T14:25:16.264Z,23.30
2017-08-28T14:27:43.768Z,23.30
2017-08-28T14:30:11.281Z,23.40
2017-08-28T14:32:38.783Z,23.40
2017-08-28T14:35:06.303Z,23.40
2017-08-28T14:37:33.804Z,23.40
2017-08-28T14:40:01.310Z,23.50
2017-08-28T14:42:28.778Z,23.60
2017-08-28T14:44:56.276Z,23.70
2017-08-28T14:47:23.774Z,23.70
2017-08-28T14:49:51.270Z,23.80
2017-08-28T14:52:18.794Z,23.80
2017-08-28T14:54:46.315Z,23.80
2017-08-28T14:57:13.820Z,23.80
2017-08-28T14:59:41.729Z,23.70
2017-08-28T15:02:09.292Z,23.70
2017-08-28T15:04:36.807Z,23.60
2017-08-28T15:07:04.314Z,23.50
2017-08-28T15:09:31.838Z,23.40
2017-08-28T15:11:59.389Z,23.30
2017-08-28T15:14:26.916Z,23.30
2017-08-28T15:16:54.433Z,23.30
2017-08-28T15:19:22.033Z,23.20
2017-08-28T15:21:49.524Z,23.20
2017-08-28T15:24:17.054Z,23.00
2017-08-28T15:26:44.841Z,23.00
2017-08-28T15:29:12.331Z,22.90
2017-08-28T15:31:39.832Z,22.80
2017-08-28T15:34:07.340Z,22.80
2017-08-28T15:36:34.870Z,22.70
2017-08-28T15:39:02.405Z,22.60
2017-08-28T15:41:29.985Z,22.50
2017-08-28T15:43:57.521Z,22.50
2017-08-28T15:46:25.015Z,22.40
2017-08-28T15:48:52.547Z,22.40
2017-08-28T15:51:20.067Z,22.40
2017-08-28T15:53:48.503Z,22.40
2017-08-28T15:56:16.035Z,22.30
2017-08-28T15:58:43.559Z,22.40
2017-08-28T16:01:11.114Z,22.40
2017-08-28T16:03:38.622Z,22.40
2017-08-28T16:06:06.167Z,22.40
2017-08-28T16:08:33.733Z,22.40
2017-08-28T16:11:01.293Z,22.40
2017-08-28T16:13:28.871Z,22.30
2017-08-28T16:15:56.379Z,22.30
2017-08-28T16:18:23.891Z,22.30
2017-08-28T16:20:51.417Z,22.20
2017-08-28T16:23:18.923Z,22.10
2017-08-28T16:25:46.433Z,22.10
2017-08-28T16:28:13.948Z,22.10
2017-08-28T16:30:41.563Z,22.20
2017-08-28T16:33:09.130Z,22.20
2017-08-28T16:35:36.698Z,22.30
2017-08-28T16:38:04.344Z,22.30
2017-08-28T16:40:31.909Z,22.30
2017-08-28T16:42:59.422Z,22.30
2017-08-28T16:45:27.048Z,22.40
2017-08-28T16:47:54.609Z,22.40
2017-08-28T16:50:22.221Z,22.40
2017-08-28T16:52:49.806Z,22.50
2017-08-28T16:55:17.441Z,22.40
2017-08-28T16:57:44.988Z,22.50
2017-08-28T17:00:12.538Z,22.60
2017-08-28T17:02:40.079Z,22.60
2017-08-28T17:05:07.599Z,22.60
2017-08-28T17:07:35.139Z,22.60
2017-08-28T17:10:02.731Z,22.60
2017-08-28T17:12:30.318Z,22.60
2017-08-28T17:14:57.891Z,22.60
2017-08-28T17:17:25.456Z,22.60
2017-08-28T17:19:52.997Z,22.60
2017-08-28T17:22:20.521Z,22.60
2017-08-28T17:24:48.305Z,22.50
2017-08-28T17:27:15.872Z,22.50
2017-08-28T17:29:43.509Z,22.50
2017-08-28T17:32:11.087Z,22.50
2017-08-28T17:34:38.600Z,22.40
2017-08-28T17:37:06.157Z,22.30
2017-08-28T17:39:33.805Z,22.30
2017-08-28T17:42:01.444Z,22.20
2017-08-28T17:44:29.003Z,22.10
2017-08-28T17:46:56.523Z,22.00
2017-08-28T17:49:24.076Z,21.90
2017-08-28T17:51:51.579Z,21.80
2017-08-28T17:54:19.097Z,21.70
2017-08-28T17:56:47.435Z,21.70
2017-08-28T17:59:14.959Z,21.60
2017-08-28T18:01:42.544Z,21.60
2017-08-28T18:04:10.101Z,21.60
2017-08-28T18:06:37.649Z,21.50
2017-08-28T18:09:05.218Z,21.50
2017-08-28T18:11:32.796Z,21.40
2017-08-28T18:14:00.354Z,21.30
2017-08-28T18:16:27.952Z,21.30
2017-08-28T18:18:55.456Z,21.20
2017-08-28T18:21:23.074Z,21.10
2017-08-28T18:23:50.591Z,21.00
2017-08-28T18:26:18.205Z,20.90
2017-08-28T18:28:45.841Z,20.90
2017-08-28T18:31:13.425Z,20.70
2017-08-28T18:33:40.933Z,20.60
2017-08-28T18:36:08.535Z,20.50
2017-08-28T18:38:36.191Z,20.40
2017-08-28T18:41:03.851Z,20.20
2017-08-28T18:43:31.508Z,20.10
2017-08-28T18:45:59.056Z,20.00
2017-08-28T18:48:26.580Z,19.90
2017-08-28T18:50:54.120Z,19.70
2017-08-28T18:53:21.876Z,19.70
2017-08-28T18:55:49.458Z,19.60
2017-08-28T18:58:17.058Z,19.40
2017-08-28T19:00:44.678Z,19.40
2017-08-28T19:03:12.235Z,19.30
2017-08-28T19:05:39.808Z,19.20
2017-08-28T19:08:07.347Z,19.10
2017-08-28T19:10:34.973Z,19.00
2017-08-28T19:13:02.524Z,19.00
2017-08-28T19:15:30.299Z,18.90
2017-08-28T19:17:57.841Z,18.80
2017-08-28T19:20:25.444Z,18.80
2017-08-28T19:22:53.004Z,18.70
2017-08-28T19:25:20.665Z,18.60
2017-08-28T19:27:48.249Z,18.60
2017-08-28T19:30:15.855Z,18.50
2017-08-28T19:32:43.766Z,18.40
2017-08-28T19:35:11.402Z,18.40
2017-08-28T19:37:38.943Z,18.30
2017-08-28T19:40:07.131Z,18.30
2017-08-28T19:42:34.727Z,18.20
2017-08-28T19:45:04.191Z,18.20
2017-08-28T19:47:32.050Z,18.10
2017-08-28T19:50:01.249Z,18.10
2017-08-28T19:52:30.868Z,18.00
2017-08-28T19:54:58.866Z,18.00
2017-08-28T19:57:27.034Z,18.00
2017-08-28T19:59:55.050Z,17.90
2017-08-28T20:05:19.811Z,17.80
2017-08-28T20:07:47.870Z,17.70
2017-08-28T20:10:15.491Z,17.70
2017-08-28T20:12:43.142Z,17.60
2017-08-28T20:15:10.845Z,17.60
2017-08-28T20:17:38.711Z,17.60
2017-08-28T20:20:07.390Z,17.50
2017-08-28T20:22:35.041Z,17.50
2017-08-28T20:25:02.612Z,17.50
2017-08-28T20:27:30.486Z,17.40
2017-08-28T20:29:58.627Z,17.40
2017-08-28T20:32:26.149Z,17.40
2017-08-28T20:34:53.740Z,17.30
2017-08-28T20:37:21.332Z,17.30
2017-08-28T20:39:48.903Z,17.20
2017-08-28T20:42:16.476Z,17.20
2017-08-28T20:44:44.088Z,17.10
2017-08-28T20:47:11.753Z,17.10
2017-08-28T20:49:39.340Z,17.10
2017-08-28T20:52:07.187Z,17.00
2017-08-28T20:54:34.756Z,17.00
2017-08-28T20:57:02.330Z,16.90
2017-08-28T20:59:30.031Z,17.00
2017-08-28T21:01:57.568Z,16.90
2017-08-28T21:04:25.125Z,16.90
2017-08-28T21:06:52.840Z,16.80
2017-08-28T21:09:20.335Z,16.80
2017-08-28T21:11:47.892Z,16.80
2017-08-28T21:14:15.525Z,16.80
2017-08-28T21:16:44.034Z,16.60
2017-08-28T21:19:11.800Z,16.60
2017-08-28T21:21:39.364Z,16.60
2017-08-28T21:24:06.907Z,16.60
2017-08-28T21:26:34.462Z,16.60
2017-08-28T21:29:02.084Z,16.50
2017-08-28T21:31:29.596Z,16.50
2017-08-28T21:33:57.423Z,16.50
2017-08-28T21:36:24.981Z,16.40
2017-08-28T21:38:52.550Z,16.30
2017-08-28T21:41:20.106Z,16.30
2017-08-28T21:43:47.660Z,16.30
2017-08-28T21:46:15.187Z,16.20
2017-08-28T21:48:42.744Z,16.30
2017-08-28T21:51:10.262Z,16.20
2017-08-28T21:53:37.798Z,16.10
2017-08-28T21:56:05.311Z,16.10
2017-08-28T21:58:32.929Z,16.10
2017-08-28T22:01:00.430Z,16.10
2017-08-28T22:03:27.957Z,16.10
2017-08-28T22:05:55.519Z,16.10
2017-08-28T22:08:23.022Z,16.00
2017-08-28T22:10:50.585Z,16.00
2017-08-28T22:13:18.084Z,16.00
2017-08-28T22:15:45.614Z,15.90
2017-08-28T22:18:13.118Z,15.80
2017-08-28T22:20:40.646Z,15.90
2017-08-28T22:23:08.179Z,15.90
2017-08-28T22:25:35.756Z,15.90
2017-08-28T22:28:03.304Z,15.80
2017-08-28T22:30:30.828Z,15.70
2017-08-28T22:32:58.388Z,15.80
2017-08-28T22:35:25.948Z,15.80
2017-08-28T22:37:53.448Z,15.80
2017-08-28T22:40:21.032Z,15.80
2017-08-28T22:42:48.564Z,15.80
2017-08-28T22:45:16.125Z,15.70
2017-08-28T22:47:43.743Z,15.70
2017-08-28T22:50:11.286Z,15.70
2017-08-28T22:52:38.857Z,15.70
2017-08-28T22:55:06.364Z,15.60
2017-08-28T22:57:33.895Z,15.60
2017-08-28T23:00:01.409Z,15.60
2017-08-28T23:02:28.942Z,15.50
2017-08-28T23:04:56.448Z,15.50
2017-08-28T23:07:24.223Z,15.50
2017-08-28T23:09:51.731Z,15.40
2017-08-28T23:12:19.246Z,15.30
2017-08-28T23:14:46.784Z,15.30
2017-08-28T23:17:14.349Z,15.30
2017-08-28T23:19:42.107Z,15.40
2017-08-28T23:22:09.607Z,15.40
2017-08-28T23:24:51.349Z,15.40
2017-08-28T23:27:18.880Z,15.20
2017-08-28T23:29:46.370Z,15.20
2017-08-28T23:32:13.871Z,15.20
2017-08-28T23:34:41.396Z,15.20
2017-08-28T23:37:08.985Z,15.20
2017-08-28T23:39:36.530Z,15.20
2017-08-28T23:42:04.024Z,15.10
2017-08-28T23:44:31.596Z,15.10
2017-08-28T23:46:59.859Z,15.10
2017-08-28T23:49:27.370Z,15.10
2017-08-28T23:51:54.877Z,15.00
2017-08-28T23:54:22.397Z,15.00
2017-08-28T23:56:49.962Z,14.90
2017-08-28T23:59:17.507Z,14.70
